Time;durP1;ratioP1;P1;durP2;ratioP2;P2;SDS_P1;SDS_P2;PMS_P1;PMS_P2;Temp;Humidity;BMP_temperature;BMP_pressure;BME280_temperature;BME280_humidity;BME280_pressure;Samples;Min_cycle;Max_cycle;Signal;HPM_P1;HPM_P2
2022/04/24 00:01:12;;;;;;;2.37;1.70;;;;;;;;;;5008330;28;20211;-63
2022/04/24 00:03:40;;;;;;;1.90;1.80;;;;;;;;;;5017369;28;20203;-63
2022/04/24 00:06:07;;;;;;;2.13;1.93;;;;;;;;;;5010532;28;20214;-63
2022/04/24 00:08:35;;;;;;;2.33;1.80;;;;;;;;;;5010805;28;20293;-63
2022/04/24 00:11:02;;;;;;;2.17;2.00;;;;;;;;;;5010200;28;20202;-63
2022/04/24 00:13:33;;;;;;;2.00;1.80;;;;;;;;;;5019902;28;20542;-63
2022/04/24 00:16:01;;;;;;;1.90;1.70;;;;;;;;;;5006345;28;20193;-63
2022/04/24 00:18:28;;;;;;;3.00;1.70;;;;;;;;;;5004067;28;20195;-63
2022/04/24 00:20:55;;;;;;;1.93;1.83;;;;;;;;;;5009613;28;20776;-63
2022/04/24 00:23:22;;;;;;;2.20;2.00;;;;;;;;;;5010446;28;20192;-63
2022/04/24 00:25:49;;;;;;;2.03;1.80;;;;;;;;;;5008426;28;20211;-63
2022/04/24 00:28:16;;;;;;;2.00;1.90;;;;;;;;;;5010483;28;20216;-63
2022/04/24 00:30:43;;;;;;;2.90;2.10;;;;;;;;;;5009697;28;20241;-63
2022/04/24 00:33:10;;;;;;;2.63;1.70;;;;;;;;;;5021435;28;20210;-63
2022/04/24 00:35:37;;;;;;;2.20;2.00;;;;;;;;;;5006638;28;20211;-63
2022/04/24 00:38:05;;;;;;;2.00;1.90;;;;;;;;;;5009884;28;20203;-63
2022/04/24 00:40:32;;;;;;;2.10;1.90;;;;;;;;;;5009831;28;20266;-63
2022/04/24 00:42:59;;;;;;;2.10;2.00;;;;;;;;;;5018992;28;20229;-63
2022/04/24 00:45:26;;;;;;;1.90;1.80;;;;;;;;;;5011985;28;20207;-63
2022/04/24 00:47:53;;;;;;;1.83;1.70;;;;;;;;;;5007823;28;20243;-63
2022/04/24 00:50:21;;;;;;;2.40;1.90;;;;;;;;;;5009816;28;20199;-63
2022/04/24 00:52:48;;;;;;;2.17;1.90;;;;;;;;;;5017934;28;20227;-63
2022/04/24 00:55:17;;;;;;;1.80;1.70;;;;;;;;;;5021108;28;20227;-63
2022/04/24 00:57:46;;;;;;;2.10;2.00;;;;;;;;;;5009989;28;20297;-63
2022/04/24 01:00:13;;;;;;;2.17;2.00;;;;;;;;;;5006595;28;20274;-63
2022/04/24 01:02:40;;;;;;;2.07;1.70;;;;;;;;;;5020341;28;20727;-63
2022/04/24 01:05:08;;;;;;;2.00;1.90;;;;;;;;;;5027697;28;20231;-63
2022/04/24 01:07:35;;;;;;;1.83;1.73;;;;;;;;;;5007093;28;20278;-64
2022/04/24 01:10:03;;;;;;;1.83;1.73;;;;;;;;;;5009194;28;20204;-63
2022/04/24 01:12:30;;;;;;;2.23;1.70;;;;;;;;;;5014197;28;20244;-63
2022/04/24 01:14:57;;;;;;;1.83;1.73;;;;;;;;;;5027347;28;20199;-63
2022/04/24 01:17:24;;;;;;;2.57;1.77;;;;;;;;;;5005823;28;20215;-63
2022/04/24 01:19:51;;;;;;;2.23;2.13;;;;;;;;;;5006853;28;20200;-63
2022/04/24 01:22:19;;;;;;;2.27;2.10;;;;;;;;;;5013879;28;20813;-63
2022/04/24 01:24:46;;;;;;;2.37;2.17;;;;;;;;;;5006810;28;20278;-63
2022/04/24 01:27:13;;;;;;;1.90;1.80;;;;;;;;;;5006087;28;20207;-63
2022/04/24 01:29:40;;;;;;;1.97;1.80;;;;;;;;;;5008597;28;20265;-63
2022/04/24 01:32:07;;;;;;;2.57;1.90;;;;;;;;;;5012171;28;20187;-63
2022/04/24 01:34:35;;;;;;;1.83;1.73;;;;;;;;;;5016628;28;20192;-63
2022/04/24 01:37:03;;;;;;;1.67;1.57;;;;;;;;;;5006866;28;20775;-63
2022/04/24 01:39:30;;;;;;;2.07;1.93;;;;;;;;;;5006250;28;20250;-63
2022/04/24 01:41:57;;;;;;;2.07;1.97;;;;;;;;;;5009902;28;20334;-63
2022/04/24 01:44:24;;;;;;;4.13;2.17;;;;;;;;;;5020075;28;20257;-63
2022/04/24 01:46:52;;;;;;;2.43;2.23;;;;;;;;;;5008723;28;20203;-63
2022/04/24 01:49:19;;;;;;;1.90;1.80;;;;;;;;;;5003453;28;20232;-63
2022/04/24 01:51:48;;;;;;;2.60;2.40;;;;;;;;;;5008997;28;20595;-63
2022/04/24 01:54:15;;;;;;;1.87;1.77;;;;;;;;;;5013432;28;20187;-63
2022/04/24 01:56:43;;;;;;;2.07;1.87;;;;;;;;;;5008512;28;20203;-63
2022/04/24 01:59:10;;;;;;;2.20;2.00;;;;;;;;;;5008758;28;20200;-63
2022/04/24 02:01:37;;;;;;;2.47;2.07;;;;;;;;;;5005244;28;20278;-63
2022/04/24 02:04:04;;;;;;;1.90;1.80;;;;;;;;;;5022684;28;20221;-63
2022/04/24 02:06:32;;;;;;;2.10;1.90;;;;;;;;;;5007875;28;20200;-63
2022/04/24 02:08:59;;;;;;;2.50;2.30;;;;;;;;;;5008358;28;20600;-63
2022/04/24 02:11:26;;;;;;;2.20;2.00;;;;;;;;;;5002636;28;20250;-63
2022/04/24 02:13:53;;;;;;;2.07;1.90;;;;;;;;;;5006911;28;20204;-63
2022/04/24 02:16:20;;;;;;;2.00;1.90;;;;;;;;;;5007356;28;20204;-63
2022/04/24 02:18:47;;;;;;;2.47;2.00;;;;;;;;;;5008078;28;20204;-63
2022/04/24 02:21:14;;;;;;;2.23;2.03;;;;;;;;;;5006028;28;20867;-63
2022/04/24 02:23:41;;;;;;;1.83;1.73;;;;;;;;;;5009134;28;20282;-64
2022/04/24 02:26:08;;;;;;;2.10;1.90;;;;;;;;;;5007860;28;20262;-63
2022/04/24 02:28:36;;;;;;;2.17;1.93;;;;;;;;;;5008017;28;20246;-63
2022/04/24 02:31:03;;;;;;;2.47;2.27;;;;;;;;;;5007215;28;20254;-63
2022/04/24 02:33:30;;;;;;;2.30;2.10;;;;;;;;;;5020146;28;20202;-63
2022/04/24 02:35:57;;;;;;;3.20;2.20;;;;;;;;;;5005974;28;20258;-63
2022/04/24 02:38:24;;;;;;;2.20;2.00;;;;;;;;;;5007657;28;20278;-63
2022/04/24 02:40:52;;;;;;;2.13;2.00;;;;;;;;;;5007701;28;20273;-63
2022/04/24 02:43:19;;;;;;;2.47;1.97;;;;;;;;;;5018085;28;20211;-63
2022/04/24 02:45:46;;;;;;;2.37;2.27;;;;;;;;;;5027793;28;20195;-63
2022/04/24 02:48:14;;;;;;;2.00;1.90;;;;;;;;;;5006817;28;20302;-62
2022/04/24 02:50:41;;;;;;;2.03;1.93;;;;;;;;;;5007319;28;20195;-63
2022/04/24 02:53:09;;;;;;;2.30;2.10;;;;;;;;;;5013217;28;20235;-63
2022/04/24 02:55:36;;;;;;;2.10;1.97;;;;;;;;;;5005790;28;20200;-63
2022/04/24 02:58:03;;;;;;;2.57;2.37;;;;;;;;;;5007303;28;20704;-63
2022/04/24 03:00:42;;;;;;;1.87;1.77;;;;;;;;;;5004564;28;20614;-63
2022/04/24 03:03:10;;;;;;;2.30;2.03;;;;;;;;;;5022011;28;20292;-63
2022/04/24 03:05:37;;;;;;;2.10;2.00;;;;;;;;;;5023456;28;20207;-63
2022/04/24 03:08:05;;;;;;;3.07;2.10;;;;;;;;;;5010213;28;20269;-63
2022/04/24 03:10:32;;;;;;;1.90;1.80;;;;;;;;;;5007654;28;20242;-63
2022/04/24 03:12:59;;;;;;;2.10;2.00;;;;;;;;;;5003594;28;20211;-63
2022/04/24 03:15:26;;;;;;;2.27;2.07;;;;;;;;;;5004820;28;20204;-63
2022/04/24 03:17:56;;;;;;;1.90;1.80;;;;;;;;;;5006894;28;20574;-63
2022/04/24 03:20:24;;;;;;;2.07;1.97;;;;;;;;;;5006932;28;20196;-63
2022/04/24 03:22:51;;;;;;;2.40;2.20;;;;;;;;;;5016623;28;20203;-63
2022/04/24 03:25:18;;;;;;;2.20;2.10;;;;;;;;;;5022664;28;20227;-63
2022/04/24 03:27:45;;;;;;;2.17;2.07;;;;;;;;;;5015919;28;20241;-63
2022/04/24 03:30:12;;;;;;;2.00;1.90;;;;;;;;;;5007047;28;20246;-63
2022/04/24 03:32:40;;;;;;;2.10;1.97;;;;;;;;;;5014698;28;20947;-63
2022/04/24 03:35:08;;;;;;;2.73;2.03;;;;;;;;;;5010141;28;20849;-62
2022/04/24 03:37:38;;;;;;;2.20;2.10;;;;;;;;;;5001713;28;20701;-63
2022/04/24 03:40:06;;;;;;;2.30;2.20;;;;;;;;;;5006630;28;20195;-63
2022/04/24 03:42:33;;;;;;;2.47;2.27;;;;;;;;;;5012411;28;20191;-63
2022/04/24 03:45:01;;;;;;;2.20;2.00;;;;;;;;;;5016870;28;20199;-63
2022/04/24 03:47:28;;;;;;;2.20;2.10;;;;;;;;;;5001727;28;20208;-62
2022/04/24 03:49:56;;;;;;;2.10;2.00;;;;;;;;;;5006735;28;20716;-62
2022/04/24 03:52:23;;;;;;;2.93;2.30;;;;;;;;;;5006861;28;20274;-63
2022/04/24 03:54:50;;;;;;;2.07;1.97;;;;;;;;;;5006459;28;20226;-62
2022/04/24 03:57:17;;;;;;;2.40;2.20;;;;;;;;;;5003295;28;20188;-62
2022/04/24 03:59:44;;;;;;;2.10;2.00;;;;;;;;;;5004063;28;20269;-62
2022/04/24 04:02:12;;;;;;;3.13;2.33;;;;;;;;;;5011221;28;20614;-62
2022/04/24 04:04:39;;;;;;;2.27;2.17;;;;;;;;;;5007268;28;20200;-62
2022/04/24 04:07:07;;;;;;;2.20;2.00;;;;;;;;;;5006723;28;20192;-63
2022/04/24 04:09:34;;;;;;;2.20;2.00;;;;;;;;;;5003388;28;20643;-62
2022/04/24 04:12:02;;;;;;;2.00;1.90;;;;;;;;;;5012065;28;20545;-61
2022/04/24 04:14:30;;;;;;;2.63;2.43;;;;;;;;;;5006044;28;20798;-61
2022/04/24 04:17:00;;;;;;;2.63;2.43;;;;;;;;;;5015896;28;20204;-61
2022/04/24 04:19:33;;;;;;;2.40;2.30;;;;;;;;;;5004091;28;20610;-61
2022/04/24 04:22:06;;;;;;;2.97;2.27;;;;;;;;;;5017747;28;20649;-63
2022/04/24 04:24:35;;;;;;;2.73;2.53;;;;;;;;;;5004605;28;20208;-63
2022/04/24 04:27:07;;;;;;;2.67;2.47;;;;;;;;;;5006691;28;20188;-61
2022/04/24 04:29:36;;;;;;;2.30;2.20;;;;;;;;;;5004198;28;20223;-61
2022/04/24 04:32:05;;;;;;;2.37;2.17;;;;;;;;;;5012424;28;20218;-62
2022/04/24 04:34:48;;;;;;;3.00;2.70;;;;;;;;;;5003652;28;20298;-63
2022/04/24 04:37:18;;;;;;;2.67;2.47;;;;;;;;;;5005292;28;20218;-61
2022/04/24 04:39:48;;;;;;;2.93;2.63;;;;;;;;;;5009662;28;20219;-61
2022/04/24 04:42:18;;;;;;;2.93;2.73;;;;;;;;;;5015243;28;20891;-62
2022/04/24 04:44:45;;;;;;;2.80;2.60;;;;;;;;;;5010336;28;20196;-61
2022/04/24 04:47:13;;;;;;;2.90;2.70;;;;;;;;;;5009917;28;20211;-62
2022/04/24 04:49:40;;;;;;;3.10;2.90;;;;;;;;;;5005573;28;20231;-62
2022/04/24 04:52:09;;;;;;;2.90;2.70;;;;;;;;;;5010755;28;20273;-62
2022/04/24 04:54:36;;;;;;;2.63;2.40;;;;;;;;;;5009503;28;20191;-62
2022/04/24 04:57:06;;;;;;;2.10;2.00;;;;;;;;;;5009786;28;20572;-61
2022/04/24 04:59:44;;;;;;;2.70;2.50;;;;;;;;;;5004816;28;20700;-61
2022/04/24 05:02:14;;;;;;;2.63;2.43;;;;;;;;;;5016850;28;20195;-63
2022/04/24 05:04:44;;;;;;;2.53;2.33;;;;;;;;;;5010954;28;20216;-62
2022/04/24 05:07:15;;;;;;;3.07;2.73;;;;;;;;;;5007470;28;20211;-62
2022/04/24 05:09:46;;;;;;;3.10;2.90;;;;;;;;;;5009122;28;20223;-63
2022/04/24 05:12:16;;;;;;;3.03;2.53;;;;;;;;;;5011197;28;20206;-63
2022/04/24 05:14:44;;;;;;;2.60;2.40;;;;;;;;;;5012682;28;20206;-62
2022/04/24 05:17:14;;;;;;;2.77;2.57;;;;;;;;;;4988623;28;20637;-62
2022/04/24 05:19:41;;;;;;;2.80;2.60;;;;;;;;;;5004305;28;20218;-62
2022/04/24 05:22:10;;;;;;;2.90;2.70;;;;;;;;;;5012366;28;20273;-63
2022/04/24 05:24:39;;;;;;;2.53;2.33;;;;;;;;;;5006276;28;20581;-62
2022/04/24 05:27:08;;;;;;;3.00;2.70;;;;;;;;;;5009582;28;20211;-61
2022/04/24 05:29:38;;;;;;;2.80;2.60;;;;;;;;;;5007648;28;21099;-61
2022/04/24 05:32:06;;;;;;;3.00;2.80;;;;;;;;;;5011765;28;20191;-61
2022/04/24 05:34:36;;;;;;;2.77;2.57;;;;;;;;;;5013735;28;20246;-61
2022/04/24 05:37:04;;;;;;;2.50;2.30;;;;;;;;;;4987425;28;20212;-63
2022/04/24 05:39:32;;;;;;;2.70;2.50;;;;;;;;;;4998866;28;21095;-63
2022/04/24 05:42:00;;;;;;;3.00;2.80;;;;;;;;;;5010249;28;20215;-61
2022/04/24 05:44:32;;;;;;;2.90;2.70;;;;;;;;;;5017000;28;20230;-61
2022/04/24 05:47:05;;;;;;;3.00;2.70;;;;;;;;;;5008902;28;20196;-61
2022/04/24 05:49:35;;;;;;;2.70;2.50;;;;;;;;;;5004733;28;20238;-62
2022/04/24 05:52:07;;;;;;;3.20;3.00;;;;;;;;;;5010611;28;20236;-61
2022/04/24 05:54:37;;;;;;;3.87;3.20;;;;;;;;;;5008690;28;20214;-61
2022/04/24 05:57:08;;;;;;;2.63;2.43;;;;;;;;;;5008163;28;20205;-61
2022/04/24 05:59:42;;;;;;;2.87;2.67;;;;;;;;;;5004404;28;20211;-61
2022/04/24 06:02:14;;;;;;;3.17;2.80;;;;;;;;;;5014718;28;20218;-62
2022/04/24 06:04:44;;;;;;;2.63;2.43;;;;;;;;;;5000545;28;20192;-62
2022/04/24 06:07:13;;;;;;;2.77;2.53;;;;;;;;;;5006129;28;20223;-61
2022/04/24 06:09:43;;;;;;;3.90;2.70;;;;;;;;;;5008350;28;20657;-62
2022/04/24 06:12:12;;;;;;;2.90;2.70;;;;;;;;;;5010811;28;20623;-61
2022/04/24 06:14:40;;;;;;;4.07;2.60;;;;;;;;;;5012246;28;20250;-61
2022/04/24 06:17:09;;;;;;;2.93;2.73;;;;;;;;;;5001103;28;20594;-62
2022/04/24 06:19:36;;;;;;;2.90;2.70;;;;;;;;;;5004276;28;20269;-62
2022/04/24 06:22:11;;;;;;;3.27;2.90;;;;;;;;;;5011617;28;20210;-62
2022/04/24 06:24:41;;;;;;;2.87;2.67;;;;;;;;;;5015858;28;20203;-61
2022/04/24 06:27:10;;;;;;;2.73;2.53;;;;;;;;;;5008420;28;20629;-62
2022/04/24 06:29:39;;;;;;;2.90;2.70;;;;;;;;;;5006694;28;20242;-62
2022/04/24 06:32:11;;;;;;;2.90;2.70;;;;;;;;;;5040981;28;20213;-62
2022/04/24 06:34:42;;;;;;;3.00;2.80;;;;;;;;;;5007330;28;20207;-62
2022/04/24 06:37:12;;;;;;;2.80;2.60;;;;;;;;;;5005549;28;20278;-62
2022/04/24 06:39:43;;;;;;;2.80;2.57;;;;;;;;;;5007912;28;20218;-62
2022/04/24 06:42:10;;;;;;;2.87;2.67;;;;;;;;;;5010944;28;20191;-61
2022/04/24 06:44:37;;;;;;;2.50;2.30;;;;;;;;;;5018672;28;20745;-61
2022/04/24 06:47:05;;;;;;;2.50;2.30;;;;;;;;;;5007561;28;20200;-62
2022/04/24 06:49:33;;;;;;;2.63;2.43;;;;;;;;;;5002104;28;20697;-62
2022/04/24 06:52:03;;;;;;;2.50;2.30;;;;;;;;;;5040214;28;20258;-62
2022/04/24 06:54:30;;;;;;;2.73;2.53;;;;;;;;;;5020147;28;20188;-62
2022/04/24 06:57:01;;;;;;;2.83;2.63;;;;;;;;;;5007972;28;20188;-61
2022/04/24 06:59:28;;;;;;;2.90;2.70;;;;;;;;;;5002622;28;20230;-62
2022/04/24 07:01:55;;;;;;;2.80;2.60;;;;;;;;;;5007379;28;20219;-62
2022/04/24 07:04:26;;;;;;;2.90;2.70;;;;;;;;;;5007042;28;20196;-63
2022/04/24 07:06:57;;;;;;;3.77;2.73;;;;;;;;;;5005463;28;20206;-62
2022/04/24 07:09:27;;;;;;;2.93;2.73;;;;;;;;;;5004837;28;20604;-62
2022/04/24 07:11:56;;;;;;;2.87;2.53;;;;;;;;;;5005533;28;20195;-61
2022/04/24 07:14:26;;;;;;;2.60;2.40;;;;;;;;;;5009609;28;20192;-61
2022/04/24 07:16:58;;;;;;;3.17;2.87;;;;;;;;;;5007406;28;20204;-61
2022/04/24 07:19:27;;;;;;;2.57;2.37;;;;;;;;;;5003975;28;20203;-62
2022/04/24 07:22:06;;;;;;;2.43;2.23;;;;;;;;;;5008645;28;20257;-63
2022/04/24 07:24:38;;;;;;;3.47;2.90;;;;;;;;;;5004622;28;20212;-61
2022/04/24 07:27:11;;;;;;;3.00;2.70;;;;;;;;;;5007676;28;20549;-61
2022/04/24 07:29:42;;;;;;;3.00;2.70;;;;;;;;;;5006903;28;20357;-62
2022/04/24 07:32:12;;;;;;;3.83;2.80;;;;;;;;;;5002828;28;20210;-62
2022/04/24 07:34:43;;;;;;;2.57;2.37;;;;;;;;;;5013530;28;20830;-62
2022/04/24 07:37:11;;;;;;;5.77;2.80;;;;;;;;;;4998154;28;20212;-63
2022/04/24 07:39:41;;;;;;;3.27;2.80;;;;;;;;;;5005938;28;20207;-62
2022/04/24 07:42:08;;;;;;;7.27;3.90;;;;;;;;;;5009764;28;20280;-62
2022/04/24 07:44:37;;;;;;;12.40;5.30;;;;;;;;;;5025403;28;20211;-62
2022/04/24 07:47:05;;;;;;;15.33;5.53;;;;;;;;;;5006794;28;20203;-61
2022/04/24 07:49:33;;;;;;;10.97;5.73;;;;;;;;;;5001354;28;21297;-62
2022/04/24 07:52:00;;;;;;;15.00;6.10;;;;;;;;;;5006522;28;20313;-61
2022/04/24 07:54:27;;;;;;;10.93;5.30;;;;;;;;;;5007067;28;20196;-61
2022/04/24 07:56:54;;;;;;;12.77;5.57;;;;;;;;;;5005789;28;20246;-62
2022/04/24 07:59:21;;;;;;;14.90;6.53;;;;;;;;;;5000961;28;20258;-62
2022/04/24 08:01:51;;;;;;;13.50;6.50;;;;;;;;;;5007822;28;20190;-62
2022/04/24 08:04:18;;;;;;;10.77;5.40;;;;;;;;;;5009263;28;20199;-62
2022/04/24 08:06:46;;;;;;;11.30;5.90;;;;;;;;;;5009862;28;20187;-62
2022/04/24 08:09:13;;;;;;;11.17;5.33;;;;;;;;;;5009562;28;20253;-62
2022/04/24 08:11:40;;;;;;;10.07;5.03;;;;;;;;;;5006067;28;20215;-61
2022/04/24 08:14:10;;;;;;;8.80;5.03;;;;;;;;;;5009451;28;20215;-61
2022/04/24 08:16:37;;;;;;;10.00;5.00;;;;;;;;;;5004474;28;20207;-61
2022/04/24 08:19:07;;;;;;;8.53;4.70;;;;;;;;;;5009271;28;20191;-61
2022/04/24 08:21:44;;;;;;;9.00;4.90;;;;;;;;;;5006128;28;20184;-61
2022/04/24 08:24:14;;;;;;;7.00;4.27;;;;;;;;;;5004955;28;20289;-60
2022/04/24 08:26:41;;;;;;;7.23;4.53;;;;;;;;;;5005361;28;20207;-60
2022/04/24 08:29:11;;;;;;;9.07;4.23;;;;;;;;;;5006947;28;20762;-61
2022/04/24 08:31:39;;;;;;;6.20;4.60;;;;;;;;;;5004591;28;20262;-62
2022/04/24 08:34:11;;;;;;;7.03;4.50;;;;;;;;;;5007520;28;20542;-61
2022/04/24 08:36:39;;;;;;;6.73;4.30;;;;;;;;;;5003534;28;20225;-61
2022/04/24 08:39:10;;;;;;;6.13;3.97;;;;;;;;;;5005955;28;20192;-61
2022/04/24 08:41:38;;;;;;;6.77;3.90;;;;;;;;;;5002111;28;20211;-61
2022/04/24 08:44:09;;;;;;;5.77;3.93;;;;;;;;;;5002051;28;20288;-61
2022/04/24 08:46:46;;;;;;;5.53;4.37;;;;;;;;;;5001603;28;20192;-62
2022/04/24 08:49:21;;;;;;;5.60;4.17;;;;;;;;;;4998447;28;20192;-62
2022/04/24 08:51:52;;;;;;;5.67;4.10;;;;;;;;;;5006261;28;20295;-61
2022/04/24 08:54:22;;;;;;;5.67;4.10;;;;;;;;;;5006345;28;20256;-62
2022/04/24 08:56:51;;;;;;;4.43;3.90;;;;;;;;;;5003347;28;20696;-62
2022/04/24 08:59:22;;;;;;;5.30;3.97;;;;;;;;;;4999105;28;20219;-62
2022/04/24 09:01:52;;;;;;;3.97;3.57;;;;;;;;;;5004768;28;20207;-61
2022/04/24 09:04:21;;;;;;;5.17;4.00;;;;;;;;;;4990862;28;20207;-61
2022/04/24 09:07:03;;;;;;;8.43;3.70;;;;;;;;;;5005214;28;20246;-61
2022/04/24 09:09:41;;;;;;;4.97;3.87;;;;;;;;;;5006407;28;20207;-61
2022/04/24 09:12:18;;;;;;;5.03;4.40;;;;;;;;;;5010314;28;20231;-62
2022/04/24 09:14:57;;;;;;;4.40;4.00;;;;;;;;;;5009144;28;20180;-61
2022/04/24 09:17:30;;;;;;;6.83;4.57;;;;;;;;;;4996926;28;20188;-61
2022/04/24 09:19:59;;;;;;;8.77;4.80;;;;;;;;;;5001187;28;20207;-63
2022/04/24 09:22:38;;;;;;;10.27;5.53;;;;;;;;;;5010828;28;20187;-62
2022/04/24 09:25:12;;;;;;;11.17;6.03;;;;;;;;;;5007044;28;20239;-62
2022/04/24 09:27:55;;;;;;;9.80;5.47;;;;;;;;;;5007707;28;20192;-63
2022/04/24 09:30:27;;;;;;;11.80;5.90;;;;;;;;;;5006608;28;20307;-62
2022/04/24 09:33:03;;;;;;;12.40;5.57;;;;;;;;;;5006775;28;20192;-62
2022/04/24 09:35:40;;;;;;;10.63;5.27;;;;;;;;;;5002457;28;20188;-63
2022/04/24 09:38:21;;;;;;;10.40;5.83;;;;;;;;;;5008861;28;20287;-62
2022/04/24 09:40:53;;;;;;;10.23;5.13;;;;;;;;;;5005129;28;20192;-62
2022/04/24 09:43:28;;;;;;;7.77;5.13;;;;;;;;;;5001696;28;20200;-63
2022/04/24 09:46:15;;;;;;;9.57;5.57;;;;;;;;;;5004513;28;20319;-62
2022/04/24 09:48:53;;;;;;;8.00;5.10;;;;;;;;;;5002898;28;20216;-62
2022/04/24 09:51:27;;;;;;;10.90;5.50;;;;;;;;;;4998118;28;20323;-62
2022/04/24 09:54:00;;;;;;;6.47;5.03;;;;;;;;;;5008011;28;20229;-62
2022/04/24 09:56:29;;;;;;;8.60;4.73;;;;;;;;;;5006621;28;20196;-62
2022/04/24 09:58:58;;;;;;;7.87;4.50;;;;;;;;;;5006468;28;20192;-62
2022/04/24 10:01:28;;;;;;;9.13;5.13;;;;;;;;;;5001897;28;20212;-61
2022/04/24 10:04:00;;;;;;;6.10;4.33;;;;;;;;;;5010626;28;20259;-61
2022/04/24 10:06:32;;;;;;;5.40;4.43;;;;;;;;;;5008707;28;20199;-65
2022/04/24 10:09:01;;;;;;;5.30;4.50;;;;;;;;;;5006251;28;20192;-63
2022/04/24 10:11:31;;;;;;;6.00;4.40;;;;;;;;;;5001835;28;20232;-63
2022/04/24 10:14:03;;;;;;;6.00;4.87;;;;;;;;;;5007216;28;20208;-61
2022/04/24 10:16:38;;;;;;;6.03;4.80;;;;;;;;;;5007831;28;20785;-60
2022/04/24 10:19:26;;;;;;;5.47;4.57;;;;;;;;;;5007443;28;20204;-60
2022/04/24 10:22:04;;;;;;;6.83;4.83;;;;;;;;;;4998038;28;20286;-61
2022/04/24 10:24:42;;;;;;;6.03;4.30;;;;;;;;;;5005826;28;20215;-62
2022/04/24 10:27:13;;;;;;;5.13;4.73;;;;;;;;;;5005575;28;20203;-62
2022/04/24 10:29:53;;;;;;;4.67;4.17;;;;;;;;;;4995719;28;20199;-63
2022/04/24 10:32:29;;;;;;;5.13;4.63;;;;;;;;;;5001268;28;20673;-63
2022/04/24 10:34:59;;;;;;;6.50;4.50;;;;;;;;;;5003243;28;20227;-62
2022/04/24 10:37:35;;;;;;;5.30;4.80;;;;;;;;;;4998949;28;20219;-62
2022/04/24 10:40:05;;;;;;;4.53;4.13;;;;;;;;;;5004507;28;20270;-62
2022/04/24 10:42:43;;;;;;;5.57;4.90;;;;;;;;;;5004656;28;20669;-63
2022/04/24 10:45:14;;;;;;;5.00;4.50;;;;;;;;;;5035493;28;20215;-61
2022/04/24 10:47:46;;;;;;;4.87;4.23;;;;;;;;;;4998881;28;20265;-63
2022/04/24 10:50:18;;;;;;;4.70;4.30;;;;;;;;;;5003894;28;20223;-61
2022/04/24 10:52:53;;;;;;;8.07;4.47;;;;;;;;;;5005135;28;20863;-62
2022/04/24 10:55:26;;;;;;;5.10;4.47;;;;;;;;;;5003362;28;20207;-63
2022/04/24 10:57:57;;;;;;;5.27;4.77;;;;;;;;;;4978315;28;20219;-64
2022/04/24 11:00:38;;;;;;;6.87;5.10;;;;;;;;;;5000226;28;20199;-61
2022/04/24 11:03:18;;;;;;;5.57;5.07;;;;;;;;;;5004466;28;20266;-61
2022/04/24 11:05:52;;;;;;;8.53;5.97;;;;;;;;;;5004618;28;20287;-61
2022/04/24 11:08:23;;;;;;;5.50;5.00;;;;;;;;;;5003789;28;20675;-61
2022/04/24 11:11:04;;;;;;;6.23;5.03;;;;;;;;;;5004597;28;20208;-63
2022/04/24 11:13:36;;;;;;;5.63;5.10;;;;;;;;;;4998221;28;20226;-62
2022/04/24 11:16:16;;;;;;;5.93;5.20;;;;;;;;;;5003967;28;20203;-61
2022/04/24 11:18:47;;;;;;;4.93;4.43;;;;;;;;;;5004279;28;20191;-63
2022/04/24 11:21:24;;;;;;;5.43;4.93;;;;;;;;;;5001922;28;20200;-64
2022/04/24 11:23:59;;;;;;;5.37;4.87;;;;;;;;;;5007026;28;20232;-65
2022/04/24 11:26:31;;;;;;;5.73;5.13;;;;;;;;;;5003315;28;20203;-63
2022/04/24 11:29:12;;;;;;;5.50;4.80;;;;;;;;;;5002261;28;20191;-63
2022/04/24 11:31:53;;;;;;;5.20;4.70;;;;;;;;;;5001786;28;20223;-63
2022/04/24 11:34:26;;;;;;;4.60;4.20;;;;;;;;;;5004234;28;20200;-63
2022/04/24 11:36:59;;;;;;;5.23;4.73;;;;;;;;;;5001870;28;20211;-63
2022/04/24 11:39:34;;;;;;;5.17;4.67;;;;;;;;;;4993552;28;20576;-63
2022/04/24 11:42:05;;;;;;;4.67;4.27;;;;;;;;;;5007431;28;20211;-63
2022/04/24 11:50:15;;;;;;;4.97;4.47;;;;;;;;;;5001929;28;20207;-63
2022/04/24 11:53:02;;;;;;;4.73;4.33;;;;;;;;;;5002672;28;20232;-63
2022/04/24 11:58:16;;;;;;;4.87;4.10;;;;;;;;;;5000880;28;20211;-64
2022/04/24 12:00:45;;;;;;;5.17;4.10;;;;;;;;;;5005677;28;20219;-63
2022/04/24 12:03:12;;;;;;;5.30;4.10;;;;;;;;;;5010794;28;20212;-64
2022/04/24 12:05:39;;;;;;;4.07;3.43;;;;;;;;;;4999679;28;20195;-64
2022/04/24 12:08:07;;;;;;;5.67;4.20;;;;;;;;;;5007579;28;20288;-64
2022/04/24 12:10:34;;;;;;;4.63;4.23;;;;;;;;;;5002022;28;20241;-64
2022/04/24 12:13:07;;;;;;;4.77;4.37;;;;;;;;;;5005255;28;20212;-65
2022/04/24 12:15:34;;;;;;;4.50;4.10;;;;;;;;;;5004494;28;20196;-65
2022/04/24 12:18:01;;;;;;;4.73;4.33;;;;;;;;;;5008046;28;20192;-65
2022/04/24 12:20:37;;;;;;;4.63;4.23;;;;;;;;;;5006563;28;20207;-64
2022/04/24 12:23:12;;;;;;;4.73;4.33;;;;;;;;;;5007461;28;20196;-64
2022/04/24 12:25:49;;;;;;;5.03;4.53;;;;;;;;;;5002827;28;20220;-65
2022/04/24 12:28:29;;;;;;;4.83;4.43;;;;;;;;;;5006887;28;20630;-65
2022/04/24 12:30:57;;;;;;;4.40;4.00;;;;;;;;;;5007157;28;20533;-65
2022/04/24 12:33:24;;;;;;;3.90;3.60;;;;;;;;;;5006450;28;20270;-65
2022/04/24 12:35:54;;;;;;;4.83;4.43;;;;;;;;;;5004614;28;20207;-64
2022/04/24 12:38:24;;;;;;;5.53;4.10;;;;;;;;;;5007482;28;20208;-63
2022/04/24 12:40:59;;;;;;;4.83;4.43;;;;;;;;;;5006907;28;20223;-61
2022/04/24 12:43:34;;;;;;;4.43;4.03;;;;;;;;;;5003856;28;20199;-62
2022/04/24 12:46:05;;;;;;;4.00;3.70;;;;;;;;;;5009067;28;20207;-63
2022/04/24 12:48:47;;;;;;;4.33;4.00;;;;;;;;;;5006448;28;20541;-63
2022/04/24 12:51:19;;;;;;;4.53;4.13;;;;;;;;;;5006380;28;20703;-62
2022/04/24 12:53:51;;;;;;;4.97;3.73;;;;;;;;;;5006051;28;20277;-63
2022/04/24 12:56:18;;;;;;;3.80;3.50;;;;;;;;;;5006215;28;20266;-63
2022/04/24 12:58:47;;;;;;;4.00;3.70;;;;;;;;;;5006212;28;20215;-63
2022/04/24 13:01:17;;;;;;;4.13;3.83;;;;;;;;;;4999188;28;20223;-65
2022/04/24 13:03:47;;;;;;;3.27;3.07;;;;;;;;;;5010442;28;20274;-65
2022/04/24 13:06:18;;;;;;;3.90;3.60;;;;;;;;;;5005748;28;20210;-64
2022/04/24 13:08:49;;;;;;;4.27;3.80;;;;;;;;;;5006109;28;20230;-64
2022/04/24 13:11:26;;;;;;;3.70;3.40;;;;;;;;;;5034425;28;20358;-64
2022/04/24 13:13:55;;;;;;;3.50;3.20;;;;;;;;;;5005432;28;20237;-62
2022/04/24 13:19:16;;;;;;;3.53;3.23;;;;;;;;;;5005124;28;20192;-62
2022/04/24 13:21:49;;;;;;;3.53;3.23;;;;;;;;;;5005925;28;20199;-62
2022/04/24 13:24:18;;;;;;;3.57;3.27;;;;;;;;;;5005008;28;20220;-62
2022/04/24 13:26:50;;;;;;;3.73;3.37;;;;;;;;;;5007083;28;20309;-61
2022/04/24 13:29:20;;;;;;;3.70;3.40;;;;;;;;;;5005724;28;20203;-60
2022/04/24 13:31:51;;;;;;;3.83;3.10;;;;;;;;;;5005275;28;20219;-61
2022/04/24 13:34:21;;;;;;;3.50;3.20;;;;;;;;;;5000385;28;20261;-63
2022/04/24 13:38:17;;;;;;;3.33;3.07;;;;;;;;;;5003979;28;20214;-61
2022/04/24 13:39:40;;;;;;;5.03;3.40;;;;;;;;;;5002325;28;20203;-60
2022/04/24 13:42:14;;;;;;;3.93;3.63;;;;;;;;;;4990713;28;20203;-63
2022/04/24 13:44:42;;;;;;;3.50;3.20;;;;;;;;;;5005659;28;20192;-66
2022/04/24 13:47:15;;;;;;;3.57;3.27;;;;;;;;;;5007604;28;20215;-63
2022/04/24 13:49:47;;;;;;;4.20;3.27;;;;;;;;;;4991089;28;20214;-61
2022/04/24 13:52:17;;;;;;;3.40;3.13;;;;;;;;;;5003043;28;20242;-63
2022/04/24 13:54:44;;;;;;;3.37;3.07;;;;;;;;;;5003884;28;20223;-63
2022/04/24 13:57:14;;;;;;;3.10;2.90;;;;;;;;;;5005052;28;20204;-64
2022/04/24 13:59:43;;;;;;;4.80;3.90;;;;;;;;;;4997655;28;20212;-64
2022/04/24 14:02:22;;;;;;;7.93;4.30;;;;;;;;;;5007493;28;20230;-64
2022/04/24 14:04:53;;;;;;;11.03;4.03;;;;;;;;;;5002940;28;20735;-64
2022/04/24 14:07:21;;;;;;;7.70;4.53;;;;;;;;;;5004527;28;20196;-65
2022/04/24 14:09:51;;;;;;;7.63;3.93;;;;;;;;;;5007693;28;20277;-65
2022/04/24 14:12:21;;;;;;;7.30;3.77;;;;;;;;;;5007722;28;20231;-63
2022/04/24 14:14:52;;;;;;;7.93;3.90;;;;;;;;;;5010286;28;20202;-62
2022/04/24 14:17:23;;;;;;;3.77;3.47;;;;;;;;;;5019707;28;20215;-62
2022/04/24 14:19:54;;;;;;;4.63;3.63;;;;;;;;;;5008092;28;20210;-62
2022/04/24 14:22:24;;;;;;;4.83;3.60;;;;;;;;;;5011604;28;20195;-65
2022/04/24 14:24:51;;;;;;;4.93;3.20;;;;;;;;;;5002970;28;20211;-66
2022/04/24 14:27:38;;;;;;;5.73;3.30;;;;;;;;;;5001990;28;20196;-66
2022/04/24 14:30:07;;;;;;;3.47;3.20;;;;;;;;;;5007397;28;20806;-64
2022/04/24 14:32:38;;;;;;;3.50;3.13;;;;;;;;;;5013581;28;20207;-64
2022/04/24 14:35:21;;;;;;;3.63;2.97;;;;;;;;;;5008775;28;20195;-62
2022/04/24 14:38:02;;;;;;;3.77;3.10;;;;;;;;;;4993000;28;20184;-62
2022/04/24 14:40:29;;;;;;;4.90;3.10;;;;;;;;;;5006889;28;20207;-62
2022/04/24 14:43:04;;;;;;;3.33;3.03;;;;;;;;;;5007986;28;20211;-62
2022/04/24 14:56:48;;;;;;;4.30;3.40;;;;;;;;;;5004453;28;20187;-65
2022/04/24 14:59:15;;;;;;;5.00;2.80;;;;;;;;;;5006918;28;20246;-65
2022/04/24 15:01:45;;;;;;;3.20;2.90;;;;;;;;;;5002925;28;20220;-65
2022/04/24 15:04:12;;;;;;;3.10;2.83;;;;;;;;;;5015404;28;20571;-65
2022/04/24 15:06:43;;;;;;;3.80;3.40;;;;;;;;;;5006487;28;20551;-62
2022/04/24 15:09:13;;;;;;;3.23;2.90;;;;;;;;;;5006566;28;20248;-62
2022/04/24 15:11:45;;;;;;;3.50;3.20;;;;;;;;;;5003093;28;20283;-65
2022/04/24 15:14:13;;;;;;;2.70;2.50;;;;;;;;;;5006497;28;20298;-65
2022/04/24 15:16:45;;;;;;;3.10;2.80;;;;;;;;;;5006813;28;20205;-66
2022/04/24 15:19:15;;;;;;;2.80;2.60;;;;;;;;;;5007207;28;20210;-64
2022/04/24 15:21:42;;;;;;;5.10;2.90;;;;;;;;;;5006671;28;20188;-64
2022/04/24 15:24:19;;;;;;;2.80;2.60;;;;;;;;;;5008384;28;20608;-64